logo tempoitalia

Diretta Meteo Dauphin Man, Canadalunedì 31 agosto ore 00:00

Mappa
Sereno 18 °C Pioggia 24 Ore: T.min 12 T.max 26
Ponente Nord-Ovest Km/h 7.4 Punto di rugiada: 18 °C Umidità: 100% Visibilità: 14 Km
Il sole sorge alle: 06:52 Il sole tramonta alle: 20:28
31 Agosto 2026 00:00 tempo osservato: Pioggia Pioggia 18 100 1002 vento: Nord NO 7.4
30 Agosto 2026 23:28 tempo osservato: Pioggia Foschia Pioggia Foschia 18 100 1003 vento: Nord O 7.4
30 Agosto 2026 23:19 tempo osservato: Pioggia Foschia Pioggia Foschia 18 93 1003 vento: Nord O 13
30 Agosto 2026 23:18 tempo osservato: Pioggia Foschia Pioggia Foschia 18 93 1003 vento: Nord O 14.8
30 Agosto 2026 23:15 tempo osservato: Pioggia Temporale nelle vicinanze Pioggia Temporale nelle vicinanze 18 100 1003 vento: Nord O 14.8
30 Agosto 2026 23:13 tempo osservato: Pioggia Temporale nelle vicinanze Pioggia Temporale nelle vicinanze 18 100 1003 vento: Nord O/SO 16.7
30 Agosto 2026 23:08 tempo osservato: Pioggia Temporale nelle vicinanze Pioggia Temporale nelle vicinanze 18 100 1004 vento: Nord O/SO 11.1
30 Agosto 2026 23:07 tempo osservato: Temporale Foschia Temporale Foschia 18 100 1004 vento: Nord O/SO 9.3
30 Agosto 2026 23:03 tempo osservato: Temporale Foschia Temporale Foschia 19 93 1003 vento: Nord O/SO 13
30 Agosto 2026 23:00 tempo osservato: Temporale Foschia Temporale Foschia 19 93 1004 vento: Nord SO 18.5
30 Agosto 2026 22:55 tempo osservato: Temporale Foschia Temporale Foschia 19 93 1004 vento: Nord SO 16.7
30 Agosto 2026 22:53 tempo osservato: Temporale Foschia Temporale Foschia 19 93 1003 vento: Nord O/SO 16.7
30 Agosto 2026 22:50 tempo osservato: Pioggia Temporale nelle vicinanze Pioggia Temporale nelle vicinanze 19 93 1003 vento: Nord O/SO 16.7
30 Agosto 2026 22:07 tempo osservato: Pioggia Pioggia 20 88 1003 vento: Nord SE 18.5
30 Agosto 2026 22:03 tempo osservato: Pioggia Temporale nelle vicinanze Pioggia Temporale nelle vicinanze 20 88 1003 vento: Nord SE 18.5
30 Agosto 2026 22:00 tempo osservato: Temporale Temporale 20 88 1003 vento: Nord SE 20.3
30 Agosto 2026 21:37 tempo osservato: Temporale Temporale 21 88 1003 vento: Nord SE 14.8
30 Agosto 2026 21:17 tempo osservato: Pioggia Temporale nelle vicinanze Pioggia Temporale nelle vicinanze 21 88 1003 vento: Nord E/SE 13
30 Agosto 2026 21:08 tempo osservato: Temporale Temporale 20 100 1004 vento: Nord E/SE 11.1
30 Agosto 2026 21:00 tempo osservato: Temporale Temporale 20 100 1004 vento: Nord N 5.5
30 Agosto 2026 20:57 tempo osservato: Temporale Temporale 20 100 1004 vento: Nord N 0
30 Agosto 2026 20:51 tempo osservato: Temporale nelle vicinanze Temporale nelle vicinanze 20 100 1004 vento: Nord N 0
30 Agosto 2026 20:00 tempo osservato: Sereno Sereno 21 94 1005 vento: Nord N 3.7
30 Agosto 2026 19:17 tempo osservato: Sereno Sereno 21 94 1005 vento: Nord N 7.4
30 Agosto 2026 19:08 tempo osservato: Pioggia Pioggia 21 100 1005 vento: Nord N 0
30 Agosto 2026 19:00 tempo osservato: Sereno Sereno 22 94 1005 vento: Nord N 3.7
30 Agosto 2026 18:00 tempo osservato: Sereno Sereno 22 94 1006 vento: Nord SE 7.4
30 Agosto 2026 17:46 tempo osservato: Sereno Sereno 22 94 1006 vento: Nord E/SE 11.1
30 Agosto 2026 17:32 tempo osservato: Pioggia Pioggia 21 94 1006 vento: Nord SE 9.3
30 Agosto 2026 17:00 tempo osservato: Sereno Sereno 22 88 1007 vento: Nord SE 11.1
30 Agosto 2026 16:46 tempo osservato: Sereno Sereno 22 88 1007 vento: Nord E/SE 14.8
30 Agosto 2026 16:01 tempo osservato: Pioggia Pioggia 24 78 1007 vento: Nord SE 24
30 Agosto 2026 16:00 tempo osservato: Sereno Sereno 24 78 1007 vento: Nord SE 18.5
30 Agosto 2026 15:00 tempo osservato: Sereno Sereno 25 73 1008 vento: Nord SE 24
30 Agosto 2026 14:00 tempo osservato: Sereno Sereno 25 73 1009 vento: Nord E/SE 25.9
30 Agosto 2026 13:00 tempo osservato: Sereno Sereno 26 65 1009 vento: Nord E 24
30 Agosto 2026 12:00 tempo osservato: Sereno Sereno 23 83 1010 vento: Nord SE 13
30 Agosto 2026 11:00 tempo osservato: Sereno Sereno 20 93 1011 vento: Nord N 5.5
30 Agosto 2026 10:36 tempo osservato: Foschia Foschia 19 100 1011 vento: Nord NE 7.4
30 Agosto 2026 10:26 tempo osservato: Foschia Foschia 19 100 1011 vento: Nord E/NE 11.1
30 Agosto 2026 10:21 tempo osservato: Foschia Foschia 19 100 1011 vento: Nord E/NE 7.4
30 Agosto 2026 10:18 tempo osservato: Foschia Foschia 18 100 1011 vento: Nord E 9.3
30 Agosto 2026 10:14 tempo osservato: Foschia Foschia 18 100 1011 vento: Nord E 11.1
30 Agosto 2026 10:00 tempo osservato: Nebbia Nebbia 18 100 1011 vento: Nord NE 7.4
30 Agosto 2026 09:00 tempo osservato: Nebbia Nebbia 18 100 1011 vento: Nord N 3.7
30 Agosto 2026 08:35 tempo osservato: Nebbia Nebbia 17 100 1011 vento: Nord N 0
30 Agosto 2026 08:30 tempo osservato: Foschia Foschia 16 100 1011 vento: Nord N 3.7
30 Agosto 2026 08:25 tempo osservato: Foschia Foschia 16 100 1011 vento: Nord N 3.7
30 Agosto 2026 08:24 tempo osservato: Foschia Foschia 16 100 1011 vento: Nord N 5.5
30 Agosto 2026 08:00 tempo osservato: Foschia Foschia 15 93 1011 vento: Nord O/NO 7.4
30 Agosto 2026 07:56 tempo osservato: Foschia Foschia 15 100 1011 vento: Nord O/NO 7.4
30 Agosto 2026 07:54 tempo osservato: Foschia Foschia 15 100 1011 vento: Nord O/NO 7.4
30 Agosto 2026 07:51 tempo osservato: Foschia Foschia 14 100 1011 vento: Nord N 5.5
30 Agosto 2026 07:34 tempo osservato: Nebbia Nebbia 13 100 1011 vento: Nord O 7.4
30 Agosto 2026 07:00 tempo osservato: Nebbia Nebbia 12 100 1011 vento: Nord N 5.5
30 Agosto 2026 06:44 tempo osservato: Nebbia Nebbia 13 100 1011 vento: Nord N 5.5
30 Agosto 2026 06:24 tempo osservato: Foschia Foschia 13 100 1011 vento: Nord N 5.5
30 Agosto 2026 06:20 tempo osservato: Foschia Foschia 13 100 1010 vento: Nord N 3.7
30 Agosto 2026 06:19 tempo osservato: Foschia Foschia 13 100 1010 vento: Nord N 5.5
30 Agosto 2026 06:00 tempo osservato: Foschia Foschia 13 100 1011 vento: Nord N 5.5
30 Agosto 2026 05:39 tempo osservato: Foschia Foschia 14 93 1010 vento: Nord O/SO 9.3
30 Agosto 2026 05:21 tempo osservato: Foschia Foschia 14 100 1010 vento: Nord N 5.5
30 Agosto 2026 05:14 tempo osservato: Foschia Foschia 14 100 1010 vento: Nord O 7.4
30 Agosto 2026 05:00 tempo osservato: Sereno Sereno 15 100 1010 vento: Nord N 0
30 Agosto 2026 04:00 tempo osservato: Sereno Sereno 17 93 1010 vento: Nord N 5.5
30 Agosto 2026 03:00 tempo osservato: Sereno Sereno 18 93 1010 vento: Nord N 7.4
30 Agosto 2026 02:11 tempo osservato: Sereno Sereno 18 93 1010 vento: Nord E 18.5
30 Agosto 2026 02:00 tempo osservato: Sereno Sereno 19 93 1011 vento: Nord N 5.5
30 Agosto 2026 01:00 tempo osservato: Sereno Sereno 18 93 1012 vento: Nord O/SO 13